PAHX

Details ICAO PAHX (SHX)
Name Shageluk
Region USA (Alaska)
Timezone America/Anchorage (UTC-9.0)
Plans Departing 0
Arriving 0
Stats Elevation 70 ft / 21 m (AMSL)
Location 62.695119° -159.569061°
Runways 1
Magnetic Variation 12.630° E
Sunrise 2017-12-15 20:07:24 UTC / 2017-12-15 11:07:24 Local
Sunset 2017-12-16 01:02:40 UTC / 2017-12-15 16:02:40 Local
Advertisement - Login to hide

Runways

ID Width Length Bearing (true) Bearing (mag) Surface Threshold Offset Overrun Length
16 49 ft / 15 m 2,302 ft / 702 m 180.00° 167.37° Gravel 0 ft / 0 m 0 ft / 0 m
34 49 ft / 15 m 2,302 ft / 702 m 0.00° 347.37° Gravel 0 ft / 0 m 0 ft / 0 m

Map

Weather


0- 5 10 15 20 25 30 35+ Temperature / ° C

Clouds and Precipitation
Forecast for 2017-12-15 12:00 UTC. Updated 2 hours ago

Ground ~20,000 ft ~40,000 ft Winds

METAR

PAHX 151241Z AUTO 02008KT 10SM SCT008 SCT014 M11/M12 A2950 RMK AO2 SNE06 P0000 FZRANO

TAF

Not found
Warning: Do not use this data for real-world aviation or navigation. No guarantee of current accuracy is given.